createdAt,value
2018-06-21T00:01:19.112Z,98158.87
2018-06-21T00:03:48.256Z,98162.94
2018-06-21T00:06:17.181Z,98162.08
2018-06-21T00:08:46.335Z,98160.27
2018-06-21T00:11:15.500Z,98154.02
2018-06-21T00:13:44.656Z,98154.02
2018-06-21T00:16:13.806Z,98151.95
2018-06-21T00:18:42.960Z,98145.76
2018-06-21T00:21:12.119Z,98147.30
2018-06-21T00:23:41.267Z,98141.28
2018-06-21T00:26:10.412Z,98137.93
2018-06-21T00:28:39.561Z,98139.05
2018-06-21T00:31:08.903Z,98143.35
2018-06-21T00:33:38.121Z,98134.93
2018-06-21T00:36:07.294Z,98132.98
2018-06-21T00:38:36.444Z,98132.42
2018-06-21T00:41:05.626Z,98134.88
2018-06-21T00:43:34.769Z,98133.09
2018-06-21T00:46:03.929Z,98131.53
2018-06-21T00:48:33.091Z,98129.88
2018-06-21T00:51:02.246Z,98122.86
2018-06-21T00:53:31.403Z,98122.78
2018-06-21T00:56:15.370Z,98119.88
2018-06-21T00:58:45.235Z,98120.66
2018-06-21T01:01:15.263Z,98117.94
2018-06-21T01:03:44.582Z,98117.94
2018-06-21T01:06:14.136Z,98120.41
2018-06-21T01:08:43.379Z,98113.69
2018-06-21T01:11:12.540Z,98115.03
2018-06-21T01:13:41.695Z,98111.44
2018-06-21T01:16:10.853Z,98109.56
2018-06-21T01:18:40.005Z,98105.87
2018-06-21T01:21:09.327Z,98104.66
2018-06-21T01:23:38.471Z,98104.63
2018-06-21T01:26:07.636Z,98096.73
2018-06-21T01:28:36.791Z,98095.61
2018-06-21T01:31:05.952Z,98086.58
2018-06-21T01:33:35.104Z,98086.14
2018-06-21T01:36:04.265Z,98078.09
2018-06-21T01:38:33.424Z,98074.48
2018-06-21T01:41:02.584Z,98075.39
2018-06-21T01:43:31.742Z,98077.16
2018-06-21T01:46:00.884Z,98074.38
2018-06-21T01:48:30.039Z,98071.36
2018-06-21T01:50:59.184Z,98068.48
2018-06-21T01:53:28.348Z,98068.72
2018-06-21T01:55:57.499Z,98067.50
2018-06-21T01:58:26.662Z,98067.43
2018-06-21T02:00:55.819Z,98063.91
2018-06-21T02:03:24.970Z,98068.70
2018-06-21T02:05:54.117Z,98069.99
2018-06-21T02:08:23.275Z,98057.69
2018-06-21T02:10:52.465Z,98057.23
2018-06-21T02:13:21.616Z,98064.73
2018-06-21T02:15:50.764Z,98056.94
2018-06-21T02:18:19.919Z,98056.94
2018-06-21T02:20:49.060Z,98051.20
2018-06-21T02:23:18.579Z,98051.20
2018-06-21T02:25:47.728Z,98049.54
2018-06-21T02:28:16.884Z,98050.52
2018-06-21T02:30:46.041Z,98044.13
2018-06-21T02:33:15.183Z,98039.69
2018-06-21T02:35:44.363Z,98039.80
2018-06-21T02:38:13.524Z,98041.34
2018-06-21T02:40:42.685Z,98041.63
2018-06-21T02:43:11.836Z,98040.50
2018-06-21T02:45:41.013Z,98032.81
2018-06-21T02:48:10.180Z,98031.19
2018-06-21T02:50:39.338Z,98026.81
2018-06-21T02:53:08.493Z,98029.80
2018-06-21T02:55:37.643Z,98028.41
2018-06-21T02:58:06.547Z,98030.56
2018-06-21T03:00:35.764Z,98024.25
2018-06-21T03:03:04.899Z,98022.11
2018-06-21T03:05:34.096Z,98026.53
2018-06-21T03:08:03.408Z,98018.56
2018-06-21T03:10:32.553Z,98020.67
2018-06-21T03:13:01.708Z,98028.12
2018-06-21T03:15:30.627Z,98024.14
2018-06-21T03:17:59.781Z,98016.78
2018-06-21T03:20:28.934Z,98009.24
2018-06-21T03:22:58.092Z,98009.97
2018-06-21T03:25:27.244Z,98018.19
2018-06-21T03:27:56.408Z,98010.83
2018-06-21T03:30:25.574Z,98009.14
2018-06-21T03:32:54.751Z,98008.30
2018-06-21T03:35:23.917Z,98000.27
2018-06-21T03:37:53.059Z,98006.29
2018-06-21T03:40:22.221Z,98002.80
2018-06-21T03:42:51.383Z,98010.19
2018-06-21T03:45:20.536Z,98003.69
2018-06-21T03:47:49.693Z,98001.82
2018-06-21T03:50:18.843Z,98003.53
2018-06-21T03:52:47.996Z,98002.77
2018-06-21T03:55:17.155Z,98006.88
2018-06-21T03:57:46.312Z,97998.55
2018-06-21T04:00:15.451Z,98002.48
2018-06-21T04:02:44.599Z,98000.00
2018-06-21T04:05:13.751Z,97994.84
2018-06-21T04:07:42.907Z,97998.13
2018-06-21T04:10:12.047Z,98005.06
2018-06-21T04:12:41.199Z,97997.31
2018-06-21T04:15:10.349Z,97993.62
2018-06-21T04:17:39.531Z,97995.89
2018-06-21T04:20:08.680Z,97996.50
2018-06-21T04:22:37.826Z,97989.84
2018-06-21T04:25:06.983Z,97993.02
2018-06-21T04:27:36.152Z,97988.34
2018-06-21T04:30:05.635Z,98001.52
2018-06-21T04:32:34.771Z,97999.60
2018-06-21T04:35:03.940Z,98000.59
2018-06-21T04:37:33.086Z,97996.72
2018-06-21T04:40:02.237Z,97996.58
2018-06-21T04:42:31.381Z,97993.27
2018-06-21T04:45:00.539Z,97993.50
2018-06-21T04:47:29.678Z,97992.05
2018-06-21T04:49:58.827Z,97992.05
2018-06-21T04:52:27.987Z,97984.06
2018-06-21T04:54:57.135Z,97993.22
2018-06-21T04:57:26.286Z,97983.05
2018-06-21T04:59:55.437Z,97988.23
2018-06-21T05:02:24.588Z,97987.55
2018-06-21T05:04:53.752Z,97987.37
2018-06-21T05:07:22.911Z,97988.41
2018-06-21T05:09:52.077Z,97979.31
2018-06-21T05:12:22.154Z,97993.42
2018-06-21T05:14:53.015Z,97983.39
2018-06-21T05:17:22.156Z,97975.67
2018-06-21T05:19:51.305Z,97970.95
2018-06-21T05:22:20.462Z,97971.23
2018-06-21T05:24:49.612Z,97971.45
2018-06-21T05:27:18.770Z,97977.08
2018-06-21T05:29:47.921Z,97974.30
2018-06-21T05:32:17.076Z,97965.95
2018-06-21T05:34:46.223Z,97959.68
2018-06-21T05:37:15.377Z,97962.12
2018-06-21T05:39:44.517Z,97970.27
2018-06-21T05:42:13.671Z,97965.55
2018-06-21T05:44:42.816Z,97957.80
2018-06-21T05:47:12.172Z,97952.19
2018-06-21T05:49:41.086Z,97961.00
2018-06-21T05:52:10.340Z,97957.23
2018-06-21T05:54:39.523Z,97953.73
2018-06-21T05:57:08.686Z,97951.27
2018-06-21T05:59:41.235Z,97957.39
2018-06-21T06:02:10.839Z,97950.20
2018-06-21T06:04:40.481Z,97953.91
2018-06-21T06:07:10.142Z,97947.98
2018-06-21T06:09:40.870Z,97952.16
2018-06-21T06:12:10.229Z,97945.47
2018-06-21T06:14:39.925Z,97944.08
2018-06-21T06:17:10.360Z,97938.29
2018-06-21T06:19:40.045Z,97935.45
2018-06-21T06:22:09.712Z,97944.45
2018-06-21T06:24:39.152Z,97939.43
2018-06-21T06:27:09.401Z,97940.94
2018-06-21T06:29:39.046Z,97944.29
2018-06-21T06:32:08.589Z,97943.92
2018-06-21T06:34:38.341Z,97925.50
2018-06-21T06:37:07.998Z,97925.61
2018-06-21T06:39:37.698Z,97926.95
2018-06-21T06:42:07.044Z,97917.49
2018-06-21T06:44:36.643Z,97910.91
2018-06-21T06:47:07.334Z,97907.98
2018-06-21T06:49:37.496Z,97915.08
2018-06-21T06:52:26.383Z,97908.70
2018-06-21T06:55:33.034Z,97906.27
2018-06-21T06:58:07.957Z,97904.76
2018-06-21T07:00:37.625Z,97899.80
2018-06-21T07:03:09.021Z,97900.34
2018-06-21T07:05:38.674Z,97902.34
2018-06-21T07:08:09.073Z,97911.86
2018-06-21T07:10:39.456Z,97894.86
2018-06-21T07:13:09.291Z,97899.44
2018-06-21T07:15:42.373Z,97905.66
2018-06-21T07:18:15.318Z,97902.69
2018-06-21T07:30:44.199Z,97926.45
2018-06-21T07:33:27.631Z,97942.09
2018-06-21T07:36:44.980Z,97928.67
2018-06-21T07:39:18.770Z,97931.55
2018-06-21T07:41:48.447Z,97937.68
2018-06-21T07:44:18.136Z,97939.86
2018-06-21T07:46:57.610Z,97937.20
2018-06-21T07:57:36.138Z,97942.96
2018-06-21T08:00:58.657Z,97938.75
2018-06-21T08:20:00.451Z,97934.73
2018-06-21T08:40:10.360Z,97937.17
2018-06-21T08:42:40.768Z,97926.39
2018-06-21T08:45:14.423Z,97945.40
2018-06-21T08:47:54.500Z,97940.80
2018-06-21T09:44:34.251Z,97957.38
2018-06-21T09:47:51.756Z,97960.33
2018-06-21T10:08:09.415Z,97985.64
2018-06-21T10:39:17.162Z,97983.25
2018-06-21T10:41:53.622Z,97974.73
2018-06-21T10:44:49.755Z,97967.61
2018-06-21T12:41:44.018Z,98069.96
2018-06-21T12:44:18.531Z,98100.30
2018-06-21T12:49:46.716Z,98087.69
2018-06-21T13:38:51.396Z,98137.52
2018-06-21T13:41:23.701Z,98136.08
2018-06-21T13:43:54.137Z,98131.08
2018-06-21T13:46:26.783Z,98124.20
2018-06-21T14:46:45.466Z,98096.81
2018-06-21T14:53:15.909Z,98093.35
2018-06-21T15:09:59.011Z,98087.28
2018-06-21T15:20:40.303Z,98107.63
2018-06-21T15:35:55.546Z,98112.63
2018-06-21T15:40:51.687Z,98111.77
2018-06-21T15:43:21.301Z,98099.52
2018-06-21T15:45:56.780Z,98109.25
2018-06-21T15:49:28.703Z,98137.94
2018-06-21T15:52:23.278Z,98137.31
2018-06-21T16:06:19.863Z,98157.78
2018-06-21T16:37:43.171Z,98163.05
2018-06-21T16:40:14.765Z,98159.08
2018-06-21T16:42:44.374Z,98167.10
2018-06-21T16:45:14.100Z,98165.66
2018-06-21T16:47:47.049Z,98186.67
2018-06-21T16:50:22.316Z,98184.58
2018-06-21T16:59:41.593Z,98181.39
2018-06-21T17:02:24.849Z,98187.16
2018-06-21T17:04:59.105Z,98185.78
2018-06-21T17:07:29.635Z,98198.26
2018-06-21T17:10:07.743Z,98187.55
2018-06-21T17:22:51.898Z,98207.97
2018-06-21T17:25:24.293Z,98214.50
2018-06-21T17:28:01.070Z,98216.17
2018-06-21T17:41:39.546Z,98230.13
2018-06-21T17:44:10.102Z,98240.23
2018-06-21T17:46:39.757Z,98226.50
2018-06-21T17:49:25.666Z,98232.28
2018-06-21T17:52:01.159Z,98246.13
2018-06-21T18:00:43.477Z,98235.28
2018-06-21T18:03:15.587Z,98251.66
2018-06-21T18:12:32.336Z,98272.08
2018-06-21T18:15:09.752Z,98275.00
2018-06-21T18:41:49.557Z,98321.02
2018-06-21T18:44:48.943Z,98328.47
2018-06-21T18:47:20.270Z,98336.73
2018-06-21T18:49:49.475Z,98332.95
2018-06-21T18:52:18.638Z,98340.35
2018-06-21T18:54:47.791Z,98341.73
2018-06-21T18:57:16.962Z,98346.91
2018-06-21T18:59:46.135Z,98353.63
2018-06-21T19:02:15.401Z,98351.61
2018-06-21T19:04:44.569Z,98359.66
2018-06-21T19:07:19.063Z,98370.49
2018-06-21T19:09:53.484Z,98368.00
2018-06-21T19:12:22.652Z,98380.38
2018-06-21T19:14:51.821Z,98366.76
2018-06-21T19:17:20.996Z,98372.00
2018-06-21T19:19:50.168Z,98388.18
2018-06-21T19:22:19.342Z,98389.61
2018-06-21T19:24:48.454Z,98400.30
2018-06-21T19:27:18.712Z,98401.80
2018-06-21T19:29:48.188Z,98409.61
2018-06-21T19:32:17.480Z,98417.02
2018-06-21T19:34:46.606Z,98414.72
2018-06-21T19:37:15.884Z,98420.16
2018-06-21T19:39:45.090Z,98422.83
2018-06-21T19:42:14.296Z,98424.06
2018-06-21T19:44:43.453Z,98428.97
2018-06-21T19:47:12.589Z,98437.24
2018-06-21T19:49:41.828Z,98442.79
2018-06-21T19:52:10.952Z,98441.70
2018-06-21T19:54:40.141Z,98461.58
2018-06-21T19:57:09.329Z,98466.27
2018-06-21T19:59:38.471Z,98474.58
2018-06-21T20:02:07.731Z,98460.53
2018-06-21T20:04:36.927Z,98478.70
2018-06-21T20:07:06.147Z,98483.36
2018-06-21T20:09:35.314Z,98483.95
2018-06-21T20:12:04.459Z,98494.61
2018-06-21T20:14:33.671Z,98492.39
2018-06-21T20:17:02.870Z,98494.78
2018-06-21T20:19:36.096Z,98500.51
2018-06-21T20:22:05.243Z,98501.53
2018-06-21T20:24:34.404Z,98510.55
2018-06-21T20:27:03.551Z,98506.55
2018-06-21T20:29:32.716Z,98513.98
2018-06-21T20:32:01.854Z,98520.37
2018-06-21T20:34:31.041Z,98526.88
2018-06-21T20:37:00.312Z,98528.37
2018-06-21T20:39:29.464Z,98525.34
2018-06-21T20:41:58.616Z,98527.09
2018-06-21T20:44:27.803Z,98526.56
2018-06-21T20:46:56.964Z,98531.91
2018-06-21T20:49:26.240Z,98532.02
2018-06-21T20:51:55.409Z,98541.84
2018-06-21T20:54:24.546Z,98548.19
2018-06-21T20:56:53.753Z,98542.25
2018-06-21T20:59:22.895Z,98558.95
2018-06-21T21:01:52.072Z,98554.77
2018-06-21T21:04:22.732Z,98559.92
2018-06-21T21:06:51.908Z,98564.95
2018-06-21T21:09:21.118Z,98561.97
2018-06-21T21:11:50.361Z,98565.53
2018-06-21T21:14:19.531Z,98568.03
2018-06-21T21:16:48.723Z,98568.17
2018-06-21T21:19:17.932Z,98570.36
2018-06-21T21:21:47.140Z,98571.62
2018-06-21T21:24:16.363Z,98577.19
2018-06-21T21:26:45.664Z,98577.29
2018-06-21T21:29:14.835Z,98581.17
2018-06-21T21:31:44.223Z,98575.56
2018-06-21T21:34:13.288Z,98577.30
2018-06-21T21:36:42.496Z,98575.95
2018-06-21T21:39:11.692Z,98572.63
2018-06-21T21:41:40.860Z,98580.36
2018-06-21T21:44:10.035Z,98582.06
2018-06-21T21:46:39.195Z,98580.73
2018-06-21T21:49:08.343Z,98587.56
2018-06-21T21:51:37.491Z,98596.49
2018-06-21T21:54:06.652Z,98596.46
2018-06-21T21:56:35.803Z,98598.74
2018-06-21T21:59:04.974Z,98600.84
2018-06-21T22:01:34.189Z,98600.09
2018-06-21T22:04:03.349Z,98600.92
2018-06-21T22:06:32.556Z,98602.59
2018-06-21T22:09:01.775Z,98604.77
2018-06-21T22:11:30.964Z,98605.20
2018-06-21T22:14:05.762Z,98608.16
2018-06-21T22:16:36.354Z,98614.48
2018-06-21T22:19:05.528Z,98617.90
2018-06-21T22:21:34.773Z,98618.78
2018-06-21T22:24:03.959Z,98622.21
2018-06-21T22:26:33.120Z,98619.70
2018-06-21T22:29:02.262Z,98620.56
2018-06-21T22:31:31.410Z,98620.97
2018-06-21T22:34:00.637Z,98621.36
2018-06-21T22:36:29.801Z,98631.14
2018-06-21T22:38:58.957Z,98634.95
2018-06-21T22:41:28.118Z,98635.80
2018-06-21T22:43:57.294Z,98635.41
2018-06-21T22:46:26.459Z,98633.27
2018-06-21T22:48:55.707Z,98641.32
2018-06-21T22:51:24.887Z,98643.43
2018-06-21T22:53:54.055Z,98640.90
2018-06-21T22:56:23.224Z,98639.23
2018-06-21T22:58:52.389Z,98644.30
2018-06-21T23:01:21.561Z,98651.04
2018-06-21T23:03:50.770Z,98650.63
2018-06-21T23:06:19.927Z,98648.04
2018-06-21T23:08:49.080Z,98648.47
2018-06-21T23:11:18.277Z,98646.78
2018-06-21T23:13:47.456Z,98650.59
2018-06-21T23:16:16.621Z,98656.07
2018-06-21T23:19:02.746Z,98651.86
2018-06-21T23:21:31.915Z,98656.45
2018-06-21T23:24:01.074Z,98661.13
2018-06-21T23:26:30.244Z,98670.86
2018-06-21T23:28:59.395Z,98663.69
2018-06-21T23:31:28.564Z,98663.67
2018-06-21T23:33:57.718Z,98671.30
2018-06-21T23:36:26.877Z,98671.30
2018-06-21T23:38:56.042Z,98677.22
2018-06-21T23:41:25.209Z,98678.86
2018-06-21T23:43:54.372Z,98680.13
2018-06-21T23:46:23.576Z,98679.69
2018-06-21T23:48:52.727Z,98677.98
2018-06-21T23:51:21.900Z,98680.95
2018-06-21T23:53:51.066Z,98684.75
2018-06-21T23:56:20.225Z,98688.11
2018-06-21T23:58:49.397Z,98690.22
